Time;durP1;ratioP1;P1;durP2;ratioP2;P2;SDS_P1;SDS_P2;PMS_P1;PMS_P2;Temp;Humidity;BMP_temperature;BMP_pressure;BME280_temperature;BME280_humidity;BME280_pressure;Samples;Min_cycle;Max_cycle;Signal;HPM_P1;HPM_P2
2021/07/03 00:02:13;;;;;;;5.60;3.97;;;17.70;99.90;;;;;;6320064;22;20656;-63
2021/07/03 00:20:02;;;;;;;4.93;4.20;;;17.50;99.90;;;;;;6261788;22;20560;31
2021/07/03 00:39:03;;;;;;;5.20;4.20;;;17.20;99.90;;;;;;5576010;24;34229;31
2021/07/03 01:10:16;;;;;;;5.38;4.47;;;16.60;99.90;;;;;;6179386;22;20206;31
2021/07/03 01:24:00;;;;;;;5.65;4.28;;;16.60;99.90;;;;;;6227755;22;20212;31
2021/07/03 01:28:28;;;;;;;5.38;4.32;;;16.60;99.90;;;;;;6142094;22;20601;31
2021/07/03 02:06:06;;;;;;;5.53;4.65;;;16.30;99.90;;;;;;6224928;22;20201;31
2021/07/03 02:13:03;;;;;;;5.65;5.15;;;16.20;99.90;;;;;;6200171;22;20201;31
2021/07/03 02:27:32;;;;;;;7.57;5.45;;;16.10;99.90;;;;;;6288638;22;20192;31
2021/07/03 02:39:03;;;;;;;6.07;5.30;;;16.00;99.90;;;;;;6260713;22;20543;-64
2021/07/03 03:13:47;;;;;;;6.00;5.32;;;15.90;99.90;;;;;;6229950;22;21700;31
2021/07/03 03:23:26;;;;;;;6.93;5.45;;;15.90;99.90;;;;;;6150371;23;20206;31
2021/07/03 03:30:24;;;;;;;7.55;5.65;;;15.90;99.90;;;;;;6266771;22;22044;31
2021/07/03 03:34:53;;;;;;;8.15;6.38;;;15.90;99.90;;;;;;6175570;22;20542;-65
2021/07/03 03:51:31;;;;;;;8.35;5.95;;;15.70;99.90;;;;;;6319228;22;20199;31
2021/07/03 04:06:24;;;;;;;7.72;5.70;;;15.80;99.90;;;;;;6342491;22;20203;31
2021/07/03 04:13:18;;;;;;;5.88;5.28;;;15.90;99.90;;;;;;5669805;23;20218;31
2021/07/03 04:17:44;;;;;;;6.38;5.10;;;15.90;99.90;;;;;;6337873;22;20520;-65
2021/07/03 04:24:53;;;;;;;6.13;4.50;;;16.00;99.90;;;;;;6176626;22;20549;31
2021/07/03 04:34:42;;;;;;;6.32;4.85;;;16.30;99.90;;;;;;6180922;22;20194;31
2021/07/03 04:55:47;;;;;;;7.32;5.22;;;16.50;99.90;;;;;;6227599;22;20200;31
2021/07/03 05:16:49;;;;;;;5.32;4.68;;;16.70;99.90;;;;;;6342606;22;20193;31
2021/07/03 05:21:11;;;;;;;10.02;4.32;;;16.70;99.90;;;;;;6260063;22;20837;31
2021/07/03 05:28:34;;;;;;;5.15;4.15;;;16.70;99.90;;;;;;5897345;22;20518;31
2021/07/03 05:44:33;;;;;;;5.65;4.28;;;16.70;99.90;;;;;;6225675;22;20221;31
2021/07/03 05:49:30;;;;;;;4.72;3.80;;;16.70;99.90;;;;;;6291021;22;20543;31
2021/07/03 06:05:45;;;;;;;7.43;4.57;;;16.80;99.90;;;;;;6288015;22;20203;31
2021/07/03 06:19:02;;;;;;;4.82;4.28;;;17.00;99.90;;;;;;6287179;22;20204;31
2021/07/03 06:25:44;;;;;;;5.72;4.18;;;17.20;99.90;;;;;;6150830;23;20202;31
2021/07/03 06:32:21;;;;;;;5.13;3.88;;;17.30;99.90;;;;;;6196073;22;20205;31
2021/07/03 06:46:35;;;;;;;4.10;3.70;;;17.40;99.90;;;;;;6257509;22;20207;31
2021/07/03 07:10:51;;;;;;;8.13;4.47;;;17.20;99.90;;;;;;6257675;22;20566;31
2021/07/03 07:15:42;;;;;;;4.28;3.78;;;17.20;99.90;;;;;;6243903;22;282712;31
2021/07/03 07:27:49;;;;;;;5.38;4.10;;;17.40;99.90;;;;;;6268993;22;20221;-62
2021/07/03 07:32:40;;;;;;;7.78;4.63;;;17.40;99.90;;;;;;6266862;22;20178;-62
2021/07/03 07:42:22;;;;;;;6.75;4.00;;;17.30;99.90;;;;;;6267436;22;20549;-62
2021/07/03 07:44:48;;;;;;;7.00;4.40;;;17.30;99.90;;;;;;6274667;22;20189;-63
2021/07/03 07:47:13;;;;;;;6.25;4.72;;;17.30;99.90;;;;;;6280424;22;20469;-62
2021/07/03 07:52:04;;;;;;;4.95;4.30;;;17.30;99.90;;;;;;6281285;22;20178;-62
2021/07/03 07:54:30;;;;;;;7.90;4.72;;;17.30;99.90;;;;;;6263653;22;319200;-63
2021/07/03 07:56:59;;;;;;;4.90;4.40;;;17.30;99.90;;;;;;6272747;22;20174;-62
2021/07/03 07:59:25;;;;;;;5.18;4.25;;;17.20;99.90;;;;;;6274139;22;20209;-64
2021/07/03 08:01:50;;;;;;;5.82;4.63;;;17.20;99.90;;;;;;6273398;22;20195;-63
2021/07/03 08:04:16;;;;;;;5.65;4.20;;;17.30;99.90;;;;;;6277483;22;20560;-63
2021/07/03 08:06:41;;;;;;;6.03;4.57;;;17.30;99.90;;;;;;6276755;22;20183;-63
2021/07/03 08:09:07;;;;;;;5.60;4.20;;;17.40;99.90;;;;;;6277209;22;20193;-63
2021/07/03 08:11:32;;;;;;;6.05;4.28;;;17.40;99.90;;;;;;6277334;22;20181;-63
2021/07/03 08:13:58;;;;;;;10.23;4.65;;;17.50;99.90;;;;;;6277326;22;20182;-63
2021/07/03 08:16:23;;;;;;;7.07;4.53;;;17.50;99.90;;;;;;6277841;22;20142;-63
2021/07/03 08:18:49;;;;;;;5.90;4.28;;;17.60;99.90;;;;;;6277836;22;20414;-63
2021/07/03 08:21:16;;;;;;;5.32;4.30;;;17.60;99.90;;;;;;6277860;22;20196;-63
2021/07/03 08:23:42;;;;;;;4.90;3.92;;;17.70;99.90;;;;;;6277632;22;20366;-64
2021/07/03 08:26:07;;;;;;;7.63;4.53;;;17.70;99.90;;;;;;6277321;22;20226;-63
2021/07/03 08:28:33;;;;;;;6.38;4.18;;;17.70;99.90;;;;;;6277285;22;20150;-64
2021/07/03 08:30:58;;;;;;;6.28;4.72;;;17.70;99.90;;;;;;6277404;22;20151;-64
2021/07/03 08:33:24;;;;;;;5.30;4.40;;;17.60;99.90;;;;;;6277224;22;20143;-63
2021/07/03 08:35:49;;;;;;;4.97;4.15;;;17.50;99.90;;;;;;6277212;22;20139;-64
2021/07/03 08:38:16;;;;;;;5.22;4.72;;;17.50;99.90;;;;;;6277148;22;20139;-64
2021/07/03 08:40:42;;;;;;;6.32;4.20;;;17.50;99.90;;;;;;6277268;22;20201;-63
2021/07/03 08:43:07;;;;;;;8.95;4.78;;;17.50;99.90;;;;;;6277049;22;20175;-63
2021/07/03 08:45:34;;;;;;;10.40;4.57;;;17.50;99.90;;;;;;6277523;22;20139;-63
2021/07/03 08:47:59;;;;;;;5.65;4.55;;;17.50;99.90;;;;;;6277138;22;20139;-63
2021/07/03 08:50:25;;;;;;;6.45;4.40;;;17.40;99.90;;;;;;6277122;22;20200;-63
2021/07/03 08:52:50;;;;;;;5.30;4.53;;;17.30;99.90;;;;;;6277150;22;20204;-63
2021/07/03 08:55:21;;;;;;;8.48;5.03;;;17.30;99.90;;;;;;6277024;22;20144;-63
2021/07/03 08:57:50;;;;;;;4.82;4.32;;;17.30;99.90;;;;;;6246471;23;20136;-64
2021/07/03 09:00:28;;;;;;;4.97;4.45;;;17.30;99.90;;;;;;6246671;23;20230;-63
2021/07/03 09:02:53;;;;;;;5.72;4.15;;;17.20;99.90;;;;;;6246385;23;20167;-62
2021/07/03 09:05:37;;;;;;;5.55;4.30;;;17.20;99.90;;;;;;6245646;23;20205;-63
2021/07/03 09:08:04;;;;;;;4.85;4.28;;;17.30;99.90;;;;;;6246417;23;20132;-63
2021/07/03 09:10:32;;;;;;;5.63;4.80;;;17.30;99.90;;;;;;6245944;23;20565;-63
2021/07/03 09:12:59;;;;;;;5.78;4.72;;;17.30;99.90;;;;;;6245884;23;20253;-63
2021/07/03 09:15:26;;;;;;;6.18;4.50;;;17.20;99.90;;;;;;6246330;23;20143;-63
2021/07/03 09:17:56;;;;;;;5.60;4.30;;;17.20;99.90;;;;;;6246287;23;20219;-63
2021/07/03 09:20:51;;;;;;;5.90;4.03;;;17.20;99.90;;;;;;6246196;23;20147;-63
2021/07/03 09:23:24;;;;;;;5.35;4.30;;;17.20;99.90;;;;;;6246144;23;20159;-64
2021/07/03 09:25:58;;;;;;;6.43;4.50;;;17.20;99.90;;;;;;6245929;23;20128;-64
2021/07/03 09:28:29;;;;;;;4.80;4.30;;;17.30;99.90;;;;;;6246208;23;20522;-64
2021/07/03 09:31:00;;;;;;;6.50;4.90;;;17.30;99.90;;;;;;6245918;23;20525;-63
2021/07/03 09:33:28;;;;;;;5.13;4.38;;;17.40;99.90;;;;;;6245778;23;20404;-63
2021/07/03 09:35:58;;;;;;;5.43;3.92;;;17.40;99.90;;;;;;6246062;23;20494;-63
2021/07/03 09:38:40;;;;;;;4.93;4.03;;;17.50;99.90;;;;;;6246179;23;20475;-63
2021/07/03 09:41:10;;;;;;;5.65;4.20;;;17.50;99.90;;;;;;6245818;23;20131;-62
2021/07/03 09:43:36;;;;;;;4.68;4.10;;;17.60;99.90;;;;;;6245911;23;20241;-63
2021/07/03 09:46:02;;;;;;;6.43;4.43;;;17.70;99.90;;;;;;6245725;23;20190;-63
2021/07/03 09:48:27;;;;;;;4.57;4.03;;;17.70;99.90;;;;;;6245732;23;20151;-63
2021/07/03 09:50:53;;;;;;;5.97;4.00;;;17.80;99.90;;;;;;6245588;23;20136;-63
2021/07/03 09:53:19;;;;;;;6.40;4.15;;;17.70;99.90;;;;;;6245648;23;20371;-63
2021/07/03 09:55:45;;;;;;;5.30;4.25;;;17.70;99.90;;;;;;6245925;23;20152;-63
2021/07/03 09:58:12;;;;;;;5.15;4.30;;;17.80;99.90;;;;;;6245724;23;20477;-62
2021/07/03 10:00:38;;;;;;;5.60;4.70;;;17.90;99.90;;;;;;6245534;23;20414;-62
2021/07/03 10:03:06;;;;;;;5.25;4.03;;;18.20;99.90;;;;;;6245997;23;20283;-62
2021/07/03 10:05:34;;;;;;;6.20;4.57;;;18.40;99.90;;;;;;6245996;23;20186;-62
2021/07/03 10:08:05;;;;;;;5.15;4.28;;;18.50;99.90;;;;;;6245909;23;20215;-62
2021/07/03 10:10:31;;;;;;;5.70;3.95;;;18.50;99.90;;;;;;6219909;23;20132;-64
2021/07/03 10:13:00;;;;;;;5.70;4.75;;;18.50;99.90;;;;;;6246221;23;20163;-64
2021/07/03 10:15:35;;;;;;;5.25;4.13;;;18.60;99.90;;;;;;6219560;23;20218;-62
2021/07/03 10:18:21;;;;;;;5.03;4.28;;;18.70;99.90;;;;;;6245992;23;20136;-62
2021/07/03 10:20:48;;;;;;;5.10;4.10;;;18.70;99.90;;;;;;6246405;23;20164;-64
2021/07/03 10:23:13;;;;;;;6.57;4.10;;;18.70;99.90;;;;;;6246051;23;20191;-63
2021/07/03 10:30:46;;;;;;;5.80;4.32;;;18.40;99.90;;;;;;6234251;22;20517;31
2021/07/03 10:33:12;;;;;;;6.78;4.15;;;18.10;99.90;;;;;;6200069;22;20191;31
2021/07/03 10:37:45;;;;;;;6.43;4.65;;;18.00;99.90;;;;;;6327731;22;20508;31
2021/07/03 11:19:54;;;;;;;6.57;4.45;;;17.70;99.90;;;;;;6194985;22;20310;-63
2021/07/03 12:54:36;;;;;;;5.85;4.43;;;18.90;99.90;;;;;;6120488;22;1533942;31
2021/07/03 13:11:36;;;;;;;5.53;3.72;;;19.50;99.90;;;;;;6187338;22;20183;31
2021/07/03 13:16:27;;;;;;;4.53;3.65;;;19.60;99.90;;;;;;6174545;22;290360;31
2021/07/03 14:00:21;;;;;;;3.15;2.90;;;19.20;99.90;;;;;;6183676;22;30390;31
2021/07/03 14:07:37;;;;;;;4.22;3.30;;;19.40;99.90;;;;;;6172030;22;308267;-63
2021/07/03 14:12:31;;;;;;;3.60;3.30;;;19.60;99.90;;;;;;6185780;22;20190;31
2021/07/03 14:39:07;;;;;;;4.55;3.10;;;19.10;99.90;;;;;;6185496;22;21326;31
2021/07/03 14:48:49;;;;;;;4.22;2.67;;;19.80;99.90;;;;;;6182852;22;294680;31
2021/07/03 14:53:42;;;;;;;4.85;3.40;;;20.00;99.90;;;;;;6195459;22;20192;31
2021/07/03 14:56:07;;;;;;;3.47;2.97;;;20.00;99.90;;;;;;6195770;22;20479;-64
2021/07/03 15:03:24;;;;;;;5.72;3.08;;;20.20;99.90;;;;;;6193272;22;20439;-64
2021/07/03 15:05:49;;;;;;;3.30;2.95;;;20.10;99.90;;;;;;6176466;23;20164;-65
2021/07/03 15:08:15;;;;;;;3.53;2.80;;;20.10;99.90;;;;;;6164478;23;302446;-64
2021/07/03 15:13:05;;;;;;;3.70;3.00;;;20.10;99.90;;;;;;6179823;23;20188;-64
2021/07/03 15:15:31;;;;;;;3.90;2.95;;;20.20;99.90;;;;;;6205863;23;20260;-65
2021/07/03 15:20:22;;;;;;;2.65;2.45;;;20.40;99.90;;;;;;6207476;23;20188;-64
2021/07/03 15:22:48;;;;;;;3.75;2.80;;;20.50;99.90;;;;;;6210154;23;20195;-65
2021/07/03 15:25:14;;;;;;;4.07;2.35;;;20.60;99.90;;;;;;6185003;23;20215;-64
2021/07/03 15:27:41;;;;;;;3.78;2.40;;;20.90;99.90;;;;;;6209341;23;20490;-65
2021/07/03 15:30:13;;;;;;;2.67;2.28;;;21.30;99.90;;;;;;6210060;23;20275;-65
2021/07/03 15:32:40;;;;;;;2.38;1.83;;;21.60;99.90;;;;;;6210229;23;20143;-65
2021/07/03 15:35:07;;;;;;;2.60;2.10;;;21.80;99.90;;;;;;6182797;23;20200;-64
2021/07/03 15:37:32;;;;;;;3.22;2.20;;;21.90;99.90;;;;;;6209774;23;20245;-65
2021/07/03 15:39:58;;;;;;;2.70;2.20;;;22.10;99.90;;;;;;6209572;23;20192;-66
2021/07/03 15:42:27;;;;;;;6.20;2.40;;;22.20;99.90;;;;;;6210264;23;20167;-66
2021/07/03 15:44:53;;;;;;;3.67;2.00;;;22.30;99.90;;;;;;6210200;23;20178;-66
2021/07/03 15:47:19;;;;;;;2.38;2.03;;;22.20;99.90;;;;;;6210264;23;20141;-65
2021/07/03 15:49:44;;;;;;;2.10;1.90;;;22.20;99.90;;;;;;6210195;23;20144;-66
2021/07/03 15:52:10;;;;;;;2.35;2.03;;;21.90;99.90;;;;;;6210109;23;20152;-65
2021/07/03 15:54:35;;;;;;;2.70;2.30;;;21.70;99.90;;;;;;6210082;23;20143;-66
2021/07/03 15:57:05;;;;;;;2.75;2.28;;;21.50;99.90;;;;;;6210036;23;20222;-66
2021/07/03 15:59:31;;;;;;;3.55;2.10;;;21.30;99.90;;;;;;6210361;23;20168;-66
2021/07/03 16:01:57;;;;;;;2.38;1.85;;;21.20;99.90;;;;;;6210083;23;20502;-66
2021/07/03 16:04:22;;;;;;;2.03;1.77;;;21.00;99.90;;;;;;6211447;23;20141;-66
2021/07/03 16:06:48;;;;;;;3.00;2.17;;;20.90;99.90;;;;;;6211860;23;20154;-66
2021/07/03 16:09:13;;;;;;;2.25;2.00;;;20.90;99.90;;;;;;6211325;23;20140;-66
2021/07/03 16:11:39;;;;;;;2.30;2.10;;;20.90;99.90;;;;;;6211418;23;20152;-66
2021/07/03 16:14:04;;;;;;;2.72;2.20;;;20.90;99.90;;;;;;6211645;23;20182;-66
2021/07/03 16:16:30;;;;;;;2.80;2.00;;;20.90;99.90;;;;;;6211397;23;20168;-66
2021/07/03 16:18:57;;;;;;;3.33;1.83;;;20.80;99.90;;;;;;6211802;23;20179;-66
2021/07/03 16:21:22;;;;;;;3.10;2.10;;;20.60;99.90;;;;;;6211878;23;20145;-66
2021/07/03 16:23:48;;;;;;;2.42;2.22;;;20.40;99.90;;;;;;6211356;23;20141;-66
2021/07/03 16:26:14;;;;;;;2.10;1.90;;;20.30;99.90;;;;;;6211521;23;20144;-66
2021/07/03 16:28:39;;;;;;;2.25;2.05;;;20.30;99.90;;;;;;6211347;23;20176;-66
2021/07/03 16:31:05;;;;;;;2.88;2.55;;;20.30;99.90;;;;;;6211522;23;20546;-67
2021/07/03 16:33:30;;;;;;;2.65;2.28;;;20.20;99.90;;;;;;6211405;23;20319;-66
2021/07/03 16:35:56;;;;;;;2.63;2.25;;;20.00;99.90;;;;;;6211473;23;20211;-66
2021/07/03 16:38:22;;;;;;;3.05;2.28;;;19.90;99.90;;;;;;6211340;23;20148;-66
2021/07/03 16:40:47;;;;;;;3.35;2.20;;;19.80;99.90;;;;;;6211255;23;20183;-66
2021/07/03 16:43:13;;;;;;;2.55;1.98;;;19.70;99.90;;;;;;6211394;23;20145;-66
2021/07/03 16:45:39;;;;;;;2.00;1.80;;;19.60;99.90;;;;;;6211703;23;20147;-66
2021/07/03 16:48:04;;;;;;;2.95;1.85;;;19.50;99.90;;;;;;6211779;23;20144;-66
2021/07/03 16:50:30;;;;;;;2.92;2.08;;;19.40;99.90;;;;;;6211363;23;20141;-66
2021/07/03 16:52:55;;;;;;;3.50;2.15;;;19.40;99.90;;;;;;6211304;23;20189;-66
2021/07/03 16:55:21;;;;;;;2.20;2.00;;;19.40;99.90;;;;;;6211446;23;20144;-66
2021/07/03 16:57:46;;;;;;;1.92;1.70;;;19.40;99.90;;;;;;6212217;23;20549;-66
2021/07/03 17:00:13;;;;;;;2.83;1.67;;;19.30;99.90;;;;;;6211654;23;20140;-66
2021/07/03 17:02:38;;;;;;;3.35;1.98;;;19.30;99.90;;;;;;6212190;23;20155;-66
2021/07/03 17:05:04;;;;;;;2.33;2.10;;;19.20;99.90;;;;;;6211667;23;20553;-66
2021/07/03 17:07:30;;;;;;;2.15;1.95;;;19.30;99.90;;;;;;6211992;23;20140;-66
2021/07/03 17:09:55;;;;;;;2.13;1.80;;;19.20;99.90;;;;;;6211299;23;20137;-66
2021/07/03 17:12:21;;;;;;;2.30;2.10;;;19.20;99.90;;;;;;6211583;23;20471;-66
2021/07/03 17:14:46;;;;;;;2.67;2.13;;;19.20;99.90;;;;;;6211310;23;20170;-66
2021/07/03 17:17:12;;;;;;;2.30;2.10;;;19.20;99.90;;;;;;6211479;23;20568;-66
2021/07/03 17:19:37;;;;;;;2.97;2.17;;;19.20;99.90;;;;;;6211481;23;20140;-66
2021/07/03 17:22:03;;;;;;;4.20;1.95;;;19.10;99.90;;;;;;6211449;23;20147;-66
2021/07/03 17:24:28;;;;;;;4.22;3.15;;;19.10;99.90;;;;;;6211247;23;20545;-66
2021/07/03 17:26:54;;;;;;;2.13;1.95;;;19.10;99.90;;;;;;6211761;23;20153;-66
2021/07/03 17:29:19;;;;;;;3.60;2.03;;;19.20;99.90;;;;;;6210128;23;20147;-66
2021/07/03 17:31:45;;;;;;;3.65;2.03;;;19.10;99.90;;;;;;6211688;23;20152;-66
2021/07/03 17:34:11;;;;;;;2.97;2.30;;;19.10;99.90;;;;;;6211264;23;20454;-66
2021/07/03 17:36:36;;;;;;;2.97;2.03;;;19.10;99.90;;;;;;6211539;23;20164;-66
2021/07/03 17:39:03;;;;;;;2.72;2.20;;;19.10;99.90;;;;;;6211089;23;20167;-66
2021/07/03 17:41:28;;;;;;;2.13;1.90;;;19.10;99.90;;;;;;6211186;23;20170;-66
2021/07/03 17:43:54;;;;;;;2.30;2.10;;;19.10;99.90;;;;;;6211544;23;20244;-66
2021/07/03 17:46:19;;;;;;;3.60;2.30;;;19.10;99.90;;;;;;6211137;23;20165;-66
2021/07/03 17:48:45;;;;;;;2.25;2.13;;;19.10;99.90;;;;;;6211149;23;20579;-66
2021/07/03 17:51:11;;;;;;;3.45;1.98;;;19.10;99.90;;;;;;6211136;23;20151;-66
2021/07/03 17:53:36;;;;;;;2.45;2.25;;;19.00;99.90;;;;;;6211123;23;20554;-66
2021/07/03 17:56:02;;;;;;;3.00;2.42;;;19.00;99.90;;;;;;6210925;23;20175;-66
2021/07/03 17:58:27;;;;;;;2.40;1.85;;;19.00;99.90;;;;;;6211080;23;20168;-66
2021/07/03 18:00:53;;;;;;;3.33;2.25;;;19.00;99.90;;;;;;6210942;23;20140;-66
2021/07/03 18:03:19;;;;;;;2.55;2.35;;;19.00;99.90;;;;;;6211124;23;20154;-66
2021/07/03 18:05:44;;;;;;;3.90;2.25;;;19.00;99.90;;;;;;6210927;23;20147;-66
2021/07/03 18:08:12;;;;;;;2.65;2.45;;;19.00;99.90;;;;;;6211257;23;20140;-66
2021/07/03 18:10:38;;;;;;;4.50;2.67;;;19.00;99.90;;;;;;6211034;23;20144;-66
2021/07/03 18:13:04;;;;;;;2.67;2.47;;;19.00;99.90;;;;;;6211129;23;20153;-66
2021/07/03 18:15:29;;;;;;;4.32;2.60;;;18.90;99.90;;;;;;6210950;23;20171;-66
2021/07/03 18:17:55;;;;;;;3.60;2.65;;;18.90;99.90;;;;;;6211063;23;20140;-66
2021/07/03 18:20:20;;;;;;;4.35;2.20;;;18.90;99.90;;;;;;6211032;23;20141;-66
2021/07/03 18:22:46;;;;;;;2.92;2.30;;;18.90;99.90;;;;;;6211447;23;20484;-64
2021/07/03 18:25:11;;;;;;;3.60;2.38;;;18.90;99.90;;;;;;6210572;23;20136;-66
2021/07/03 18:27:37;;;;;;;2.78;2.53;;;18.80;99.90;;;;;;6211089;23;20726;-65
2021/07/03 18:30:08;;;;;;;2.38;2.17;;;18.80;99.90;;;;;;6211262;23;20242;-64
2021/07/03 18:32:34;;;;;;;2.83;2.63;;;18.80;99.90;;;;;;6210967;23;20579;-66
2021/07/03 18:34:59;;;;;;;6.47;3.03;;;18.70;99.90;;;;;;6210907;23;20164;-66
2021/07/03 18:37:25;;;;;;;4.88;3.47;;;18.70;99.90;;;;;;6210953;23;20204;-66
2021/07/03 18:39:50;;;;;;;3.60;3.30;;;18.70;99.90;;;;;;6210713;23;20195;-66
2021/07/03 18:42:16;;;;;;;4.63;4.13;;;18.60;99.90;;;;;;6210890;23;20197;-66
2021/07/03 18:44:42;;;;;;;3.15;2.92;;;18.60;99.90;;;;;;6210964;23;20534;-66
2021/07/03 18:47:07;;;;;;;3.58;3.00;;;18.60;99.90;;;;;;6211392;23;20152;-66
2021/07/03 18:49:33;;;;;;;5.20;3.22;;;18.60;99.90;;;;;;6210984;23;20175;-66
2021/07/03 18:51:58;;;;;;;4.65;3.45;;;18.60;99.90;;;;;;6211147;23;20261;-66
2021/07/03 18:54:24;;;;;;;3.85;3.55;;;18.60;99.90;;;;;;6210873;23;20610;-66
2021/07/03 18:56:49;;;;;;;4.07;3.65;;;18.60;99.90;;;;;;6211083;23;20168;-66
2021/07/03 18:59:15;;;;;;;4.80;4.00;;;18.60;99.90;;;;;;6211093;23;20141;-66
2021/07/03 19:01:40;;;;;;;4.60;4.20;;;18.60;99.90;;;;;;6210791;23;20166;-65
2021/07/03 19:04:06;;;;;;;4.68;4.20;;;18.60;99.90;;;;;;6211168;23;20204;-66
2021/07/03 19:06:31;;;;;;;6.05;4.90;;;18.60;99.90;;;;;;6210854;23;20775;-66
2021/07/03 19:08:57;;;;;;;5.50;5.00;;;18.60;99.90;;;;;;6210905;23;20448;-66
2021/07/03 19:11:22;;;;;;;6.32;4.97;;;18.50;99.90;;;;;;6211016;23;20159;-66
2021/07/03 19:13:48;;;;;;;6.32;5.72;;;18.50;99.90;;;;;;6210829;23;20213;-66
2021/07/03 19:16:13;;;;;;;5.55;5.05;;;18.50;99.90;;;;;;6210907;23;20248;-66
2021/07/03 19:18:39;;;;;;;5.43;4.88;;;18.50;99.90;;;;;;6211071;23;20434;-66
2021/07/03 19:21:05;;;;;;;6.28;4.50;;;18.50;99.90;;;;;;6209337;23;20509;-66
2021/07/03 19:23:34;;;;;;;3.28;3.03;;;18.40;99.90;;;;;;6210760;23;20545;-66
2021/07/03 19:26:02;;;;;;;2.97;2.78;;;18.40;99.90;;;;;;6210579;23;20624;-66
2021/07/03 19:28:27;;;;;;;4.43;3.45;;;18.40;99.90;;;;;;6211092;23;20140;-66
2021/07/03 19:30:53;;;;;;;4.55;3.13;;;18.30;99.90;;;;;;6210596;23;20163;-66
2021/07/03 19:33:18;;;;;;;4.57;4.18;;;18.30;99.90;;;;;;6210901;23;20160;-66
2021/07/03 19:41:32;;;;;;;5.13;4.20;;;18.20;99.90;;;;;;6168850;22;20190;31
2021/07/03 19:48:43;;;;;;;3.88;3.58;;;18.10;99.90;;;;;;6290309;22;20207;31
2021/07/03 19:59:44;;;;;;;7.32;6.72;;;18.10;99.90;;;;;;6323952;22;20509;-64
2021/07/03 20:09:27;;;;;;;6.57;5.93;;;18.00;99.90;;;;;;6290074;22;20195;31
2021/07/03 21:02:24;;;;;;;4.70;4.20;;;17.80;99.90;;;;;;6349213;22;20801;31
2021/07/03 21:25:45;;;;;;;6.93;6.32;;;17.80;99.90;;;;;;6290840;22;20200;31
2021/07/03 21:32:40;;;;;;;12.65;10.43;;;17.70;99.90;;;;;;6290390;22;20191;-64
2021/07/03 21:36:41;;;;;;;13.77;10.57;;;17.70;99.90;;;;;;6177537;22;20599;31
2021/07/03 21:45:55;;;;;;;11.57;8.68;;;17.70;99.90;;;;;;6198511;22;20202;31
2021/07/03 21:49:59;;;;;;;9.20;7.57;;;17.60;99.90;;;;;;6324346;22;20508;31
2021/07/03 22:03:58;;;;;;;5.40;4.82;;;17.60;99.90;;;;;;6324828;22;21815;31
2021/07/03 22:17:21;;;;;;;6.05;4.80;;;17.60;99.90;;;;;;6231388;22;20521;31
2021/07/03 22:47:15;;;;;;;20.08;16.15;;;17.50;99.90;;;;;;6291211;22;20203;31
2021/07/03 22:54:24;;;;;;;9.80;8.35;;;17.50;99.90;;;;;;6345823;22;20436;31
2021/07/03 23:08:14;;;;;;;21.02;16.88;;;17.50;99.90;;;;;;6235585;22;20196;31
2021/07/03 23:12:19;;;;;;;19.17;15.18;;;17.50;99.90;;;;;;6325504;22;20513;31
2021/07/03 23:18:57;;;;;;;19.88;13.95;;;17.50;99.90;;;;;;6324901;22;20513;31
2021/07/03 23:28:01;;;;;;;8.60;7.70;;;17.50;99.90;;;;;;6151626;23;20203;31
2021/07/03 23:39:43;;;;;;;8.63;7.43;;;17.50;99.90;;;;;;6229547;22;20750;31
2021/07/03 23:48:41;;;;;;;7.55;6.78;;;17.40;99.90;;;;;;6167456;22;20203;31
